createdAt,value
2017-11-14T00:01:07.160Z,62.48
2017-11-14T00:03:33.095Z,62.38
2017-11-14T00:05:59.045Z,62.54
2017-11-14T00:08:24.985Z,62.82
2017-11-14T00:10:50.924Z,62.37
2017-11-14T00:13:16.856Z,62.17
2017-11-14T00:15:42.784Z,62.57
2017-11-14T00:18:08.720Z,63.03
2017-11-14T00:20:34.642Z,62.44
2017-11-14T00:23:00.582Z,62.86
2017-11-14T00:25:26.500Z,62.63
2017-11-14T00:27:52.435Z,61.89
2017-11-14T00:30:19.223Z,62.05
2017-11-14T00:32:45.248Z,61.67
2017-11-14T00:35:11.175Z,62.52
2017-11-14T00:37:37.142Z,62.64
2017-11-14T00:40:03.070Z,62.18
2017-11-14T00:42:29.000Z,62.56
2017-11-14T00:44:54.932Z,62.05
2017-11-14T00:47:20.872Z,62.65
2017-11-14T00:49:46.800Z,61.94
2017-11-14T00:52:12.719Z,62.17
2017-11-14T00:54:38.646Z,62.03
2017-11-14T00:57:04.563Z,61.93
2017-11-14T00:59:30.482Z,62.15
2017-11-14T01:01:56.404Z,61.29
2017-11-14T01:04:22.331Z,61.34
2017-11-14T01:06:48.261Z,62.05
2017-11-14T01:09:14.191Z,61.89
2017-11-14T01:11:40.168Z,62.00
2017-11-14T01:14:06.104Z,61.63
2017-11-14T01:16:32.080Z,61.41
2017-11-14T01:18:58.015Z,60.72
2017-11-14T01:21:23.952Z,61.61
2017-11-14T01:23:49.875Z,61.44
2017-11-14T01:26:15.815Z,61.46
2017-11-14T01:28:41.785Z,61.36
2017-11-14T01:31:07.715Z,61.38
2017-11-14T01:33:33.668Z,61.80
2017-11-14T01:35:59.624Z,61.97
2017-11-14T01:38:25.564Z,61.53
2017-11-14T01:40:51.524Z,61.60
2017-11-14T01:43:17.468Z,60.73
2017-11-14T01:45:43.418Z,61.39
2017-11-14T01:48:09.362Z,61.71
2017-11-14T01:50:35.286Z,62.02
2017-11-14T01:53:01.264Z,62.19
2017-11-14T01:55:27.203Z,62.12
2017-11-14T01:57:53.126Z,62.03
2017-11-14T02:00:19.063Z,62.82
2017-11-14T02:02:44.997Z,61.95
2017-11-14T02:05:10.940Z,61.89
2017-11-14T02:07:36.896Z,61.78
2017-11-14T02:10:02.864Z,61.81
2017-11-14T02:12:28.826Z,62.14
2017-11-14T02:14:54.785Z,61.76
2017-11-14T02:17:20.749Z,61.47
2017-11-14T02:19:46.693Z,61.04
2017-11-14T02:22:12.650Z,61.34
2017-11-14T02:24:38.603Z,61.62
2017-11-14T02:27:04.536Z,61.52
2017-11-14T02:29:30.476Z,61.52
2017-11-14T02:31:56.447Z,61.83
2017-11-14T02:34:22.394Z,61.49
2017-11-14T02:36:48.369Z,61.50
2017-11-14T02:39:14.296Z,61.58
2017-11-14T02:41:40.240Z,61.58
2017-11-14T02:44:06.188Z,61.84
2017-11-14T02:46:32.135Z,61.45
2017-11-14T02:48:58.080Z,61.68
2017-11-14T02:51:24.016Z,61.43
2017-11-14T02:53:49.972Z,61.53
2017-11-14T02:56:15.905Z,61.74
2017-11-14T02:58:41.853Z,62.27
2017-11-14T03:01:07.797Z,61.39
2017-11-14T03:03:33.727Z,61.58
2017-11-14T03:05:59.663Z,61.87
2017-11-14T03:08:25.604Z,61.40
2017-11-14T03:10:51.535Z,61.67
2017-11-14T03:13:17.475Z,62.39
2017-11-14T03:15:43.408Z,61.81
2017-11-14T03:18:09.383Z,61.98
2017-11-14T03:20:35.329Z,62.50
2017-11-14T03:23:01.274Z,62.19
2017-11-14T03:25:27.218Z,62.25
2017-11-14T03:27:53.186Z,62.54
2017-11-14T03:30:19.134Z,62.42
2017-11-14T03:32:45.081Z,62.08
2017-11-14T03:35:11.027Z,62.88
2017-11-14T03:37:36.975Z,62.12
2017-11-14T03:40:02.919Z,62.02
2017-11-14T03:42:28.847Z,62.16
2017-11-14T03:44:54.799Z,62.06
2017-11-14T03:47:20.735Z,62.03
2017-11-14T03:49:46.694Z,63.23
2017-11-14T03:52:12.642Z,62.45
2017-11-14T03:54:38.570Z,62.88
2017-11-14T03:57:04.524Z,62.57
2017-11-14T03:59:30.456Z,62.34
2017-11-14T04:01:56.430Z,62.16
2017-11-14T04:04:22.375Z,62.62
2017-11-14T04:06:48.331Z,63.04
2017-11-14T04:09:14.283Z,62.42
2017-11-14T04:11:40.235Z,61.90
2017-11-14T04:14:06.164Z,62.56
2017-11-14T04:16:32.144Z,62.43
2017-11-14T04:18:58.125Z,62.09
2017-11-14T04:21:24.078Z,63.22
2017-11-14T04:23:50.008Z,63.07
2017-11-14T04:26:15.933Z,62.73
2017-11-14T04:28:41.861Z,62.61
2017-11-14T04:31:07.901Z,63.62
2017-11-14T04:33:33.832Z,64.45
2017-11-14T04:35:59.801Z,63.19
2017-11-14T04:38:25.745Z,63.70
2017-11-14T04:40:51.669Z,62.90
2017-11-14T04:43:17.614Z,63.65
2017-11-14T04:45:43.543Z,63.90
2017-11-14T04:48:09.484Z,63.10
2017-11-14T04:50:35.423Z,63.45
2017-11-14T04:53:01.404Z,63.71
2017-11-14T04:55:27.342Z,63.08
2017-11-14T04:57:53.265Z,63.34
2017-11-14T05:00:19.223Z,63.73
2017-11-14T05:02:45.161Z,64.47
2017-11-14T05:05:11.104Z,63.73
2017-11-14T05:07:37.047Z,62.98
2017-11-14T05:10:03.001Z,63.33
2017-11-14T05:12:28.935Z,63.88
2017-11-14T05:14:54.903Z,63.39
2017-11-14T05:17:20.948Z,63.94
2017-11-14T05:19:46.910Z,63.73
2017-11-14T05:22:12.847Z,63.46
2017-11-14T05:24:38.785Z,63.12
2017-11-14T05:27:04.723Z,63.59
2017-11-14T05:29:30.660Z,64.16
2017-11-14T05:34:28.887Z,64.13
2017-11-14T05:36:54.830Z,64.98
2017-11-14T05:39:20.790Z,65.28
2017-11-14T05:41:46.724Z,64.44
2017-11-14T05:44:12.650Z,64.75
2017-11-14T05:46:38.600Z,64.30
2017-11-14T05:49:04.528Z,64.36
2017-11-14T05:51:30.456Z,63.92
2017-11-14T05:53:56.420Z,64.10
2017-11-14T05:56:22.372Z,64.23
2017-11-14T05:58:48.338Z,64.40
2017-11-14T06:01:14.296Z,65.06
2017-11-14T06:03:40.252Z,64.61
2017-11-14T06:06:06.189Z,64.06
2017-11-14T06:08:32.126Z,63.44
2017-11-14T06:10:58.063Z,64.27
2017-11-14T06:13:24.008Z,63.98
2017-11-14T06:15:49.955Z,64.06
2017-11-14T06:18:15.907Z,64.35
2017-11-14T06:20:41.846Z,63.65
2017-11-14T06:23:07.780Z,64.05
2017-11-14T06:25:33.733Z,64.35
2017-11-14T06:27:59.669Z,64.17
2017-11-14T06:30:25.653Z,64.00
2017-11-14T06:32:51.594Z,63.79
2017-11-14T06:35:17.561Z,63.85
2017-11-14T06:37:43.492Z,63.13
2017-11-14T06:40:09.437Z,63.81
2017-11-14T06:42:35.361Z,64.05
2017-11-14T06:45:01.315Z,63.76
2017-11-14T06:47:27.275Z,63.66
2017-11-14T06:49:53.205Z,63.66
2017-11-14T06:52:19.136Z,63.81
2017-11-14T06:54:45.077Z,63.41
2017-11-14T06:57:11.021Z,63.60
2017-11-14T06:59:36.954Z,63.36
2017-11-14T07:02:02.919Z,63.73
2017-11-14T07:04:28.872Z,63.22
2017-11-14T07:06:54.797Z,63.08
2017-11-14T07:09:20.769Z,63.06
2017-11-14T07:11:46.707Z,63.11
2017-11-14T07:14:12.652Z,62.95
2017-11-14T07:16:38.597Z,63.09
2017-11-14T07:19:04.536Z,62.71
2017-11-14T07:21:30.496Z,62.77
2017-11-14T07:23:56.446Z,62.72
2017-11-14T07:26:22.389Z,62.53
2017-11-14T07:28:48.329Z,63.06
2017-11-14T07:31:14.267Z,63.25
2017-11-14T07:33:40.219Z,63.07
2017-11-14T07:36:06.150Z,62.87
2017-11-14T07:38:32.073Z,62.70
2017-11-14T07:40:58.020Z,62.86
2017-11-14T07:43:23.968Z,62.58
2017-11-14T07:45:49.926Z,62.72
2017-11-14T07:48:15.858Z,62.84
2017-11-14T07:50:41.880Z,62.76
2017-11-14T07:53:07.826Z,62.91
2017-11-14T07:55:33.852Z,62.57
2017-11-14T07:57:59.784Z,62.68
2017-11-14T08:00:25.719Z,62.66
2017-11-14T08:02:51.644Z,62.31
2017-11-14T08:05:17.598Z,62.57
2017-11-14T08:07:43.594Z,62.23
2017-11-14T08:10:09.535Z,61.94
2017-11-14T08:12:35.484Z,61.68
2017-11-14T08:15:01.489Z,61.75
2017-11-14T08:17:27.435Z,61.37
2017-11-14T08:19:53.377Z,61.09
2017-11-14T08:22:19.316Z,61.19
2017-11-14T08:24:45.266Z,60.93
2017-11-14T08:27:11.236Z,61.35
2017-11-14T08:29:37.204Z,61.27
2017-11-14T08:32:03.182Z,61.29
2017-11-14T08:34:29.342Z,61.15
2017-11-14T08:36:55.284Z,61.68
2017-11-14T08:39:21.350Z,61.46
2017-11-14T08:41:47.300Z,60.64
2017-11-14T08:44:13.248Z,60.68
2017-11-14T08:46:39.187Z,60.20
2017-11-14T08:49:05.138Z,62.20
2017-11-14T08:51:31.122Z,62.69
2017-11-14T08:53:57.059Z,61.85
2017-11-14T08:56:22.996Z,62.01
2017-11-14T08:58:48.932Z,61.66
2017-11-14T09:01:14.909Z,62.24
2017-11-14T09:03:40.877Z,61.39
2017-11-14T09:06:06.837Z,61.00
2017-11-14T09:08:32.776Z,60.73
2017-11-14T09:10:58.713Z,61.04
2017-11-14T09:13:24.645Z,60.41
2017-11-14T09:15:50.588Z,61.01
2017-11-14T09:18:16.508Z,59.90
2017-11-14T09:20:42.524Z,60.36
2017-11-14T09:23:08.474Z,59.53
2017-11-14T09:25:34.422Z,59.58
2017-11-14T09:28:00.352Z,59.63
2017-11-14T09:30:26.289Z,59.20
2017-11-14T09:32:52.226Z,59.48
2017-11-14T09:35:18.198Z,59.09
2017-11-14T09:37:44.206Z,59.44
2017-11-14T09:40:10.154Z,59.16
2017-11-14T09:42:36.086Z,59.53
2017-11-14T09:45:02.046Z,59.80
2017-11-14T09:47:28.036Z,59.88
2017-11-14T09:49:53.959Z,59.59
2017-11-14T09:52:19.910Z,59.88
2017-11-14T09:54:45.853Z,60.56
2017-11-14T09:57:11.838Z,59.94
2017-11-14T09:59:37.803Z,59.97
2017-11-14T10:02:03.728Z,59.90
2017-11-14T10:04:29.675Z,60.13
2017-11-14T10:06:55.644Z,59.73
2017-11-14T10:09:21.597Z,60.01
2017-11-14T10:11:47.544Z,60.08
2017-11-14T10:14:13.497Z,60.14
2017-11-14T10:16:39.441Z,58.89
2017-11-14T10:19:05.404Z,59.18
2017-11-14T10:21:31.348Z,59.21
2017-11-14T10:23:57.318Z,59.13
2017-11-14T10:26:23.286Z,59.28
2017-11-14T10:28:49.228Z,60.03
2017-11-14T10:31:15.209Z,59.94
2017-11-14T10:33:41.138Z,60.40
2017-11-14T10:36:07.066Z,60.54
2017-11-14T10:38:33.002Z,59.71
2017-11-14T10:40:59.038Z,60.12
2017-11-14T10:43:25.060Z,60.32
2017-11-14T10:45:51.036Z,59.45
2017-11-14T10:48:16.962Z,59.10
2017-11-14T10:50:42.921Z,58.62
2017-11-14T10:53:08.860Z,58.44
2017-11-14T10:55:34.789Z,58.17
2017-11-14T10:58:00.716Z,57.82
2017-11-14T11:00:26.672Z,58.47
2017-11-14T11:02:52.604Z,57.76
2017-11-14T11:05:18.594Z,57.82
2017-11-14T11:07:44.529Z,57.94
2017-11-14T11:10:10.476Z,57.86
2017-11-14T11:12:36.448Z,57.96
2017-11-14T11:15:02.379Z,57.73
2017-11-14T11:17:28.338Z,57.30
2017-11-14T11:19:54.290Z,57.47
2017-11-14T11:22:20.235Z,57.24
2017-11-14T11:24:46.187Z,57.50
2017-11-14T11:27:12.114Z,57.31
2017-11-14T11:29:38.057Z,57.38
2017-11-14T11:32:04.000Z,57.42
2017-11-14T11:34:29.926Z,57.54
2017-11-14T11:36:55.884Z,57.61
2017-11-14T11:39:21.820Z,57.28
2017-11-14T11:41:47.762Z,57.59
2017-11-14T11:44:13.728Z,57.72
2017-11-14T11:46:39.663Z,57.51
2017-11-14T11:49:05.614Z,57.78
2017-11-14T11:51:31.554Z,57.61
2017-11-14T11:53:57.490Z,57.58
2017-11-14T11:56:23.442Z,57.33
2017-11-14T11:58:49.379Z,57.41
2017-11-14T12:01:15.354Z,57.11
2017-11-14T12:03:41.302Z,57.36
2017-11-14T12:06:07.246Z,57.56
2017-11-14T12:08:33.209Z,57.26
2017-11-14T12:10:59.160Z,57.40
2017-11-14T12:13:25.103Z,57.74
2017-11-14T12:15:51.216Z,57.38
2017-11-14T12:18:17.164Z,56.69
2017-11-14T12:20:43.098Z,57.17
2017-11-14T12:23:09.040Z,57.93
2017-11-14T12:25:34.981Z,57.21
2017-11-14T12:28:00.940Z,57.33
2017-11-14T12:30:26.876Z,57.35
2017-11-14T12:32:52.838Z,56.89
2017-11-14T12:35:18.779Z,57.21
2017-11-14T12:37:44.716Z,57.11
2017-11-14T12:40:10.676Z,57.13
2017-11-14T12:42:36.618Z,57.08
2017-11-14T12:45:02.567Z,57.08
2017-11-14T12:47:28.488Z,57.48
2017-11-14T12:49:54.448Z,57.40
2017-11-14T12:52:20.398Z,56.76
2017-11-14T12:54:46.338Z,56.69
2017-11-14T12:57:12.288Z,56.67
2017-11-14T12:59:38.229Z,56.68
2017-11-14T13:02:04.175Z,56.69
2017-11-14T13:04:30.142Z,56.62
2017-11-14T13:06:56.076Z,56.51
2017-11-14T13:09:22.004Z,56.51
2017-11-14T13:11:47.976Z,56.32
2017-11-14T13:14:13.909Z,56.56
2017-11-14T13:16:39.850Z,56.45
2017-11-14T13:19:05.799Z,56.36
2017-11-14T13:21:31.741Z,56.19
2017-11-14T13:23:57.719Z,56.03
2017-11-14T13:26:23.647Z,55.96
2017-11-14T13:28:49.591Z,55.96
2017-11-14T13:31:15.567Z,55.31
2017-11-14T13:33:41.519Z,55.55
2017-11-14T13:36:07.471Z,55.53
2017-11-14T13:38:33.402Z,55.17
2017-11-14T13:40:59.452Z,55.19
2017-11-14T13:43:25.404Z,54.99
2017-11-14T13:45:51.339Z,55.25
2017-11-14T13:48:17.290Z,55.04
2017-11-14T13:50:43.236Z,55.22
2017-11-14T13:53:09.176Z,55.40
2017-11-14T13:55:35.112Z,55.31
2017-11-14T13:58:01.059Z,55.64
2017-11-14T14:00:27.028Z,55.68
2017-11-14T14:02:53.024Z,56.05
2017-11-14T14:05:18.983Z,56.12
2017-11-14T14:07:44.912Z,55.89
2017-11-14T14:10:10.856Z,56.21
2017-11-14T14:12:36.786Z,56.20
2017-11-14T14:15:02.730Z,56.33
2017-11-14T14:17:28.659Z,56.26
2017-11-14T14:19:54.595Z,56.75
2017-11-14T14:22:20.545Z,56.86
2017-11-14T14:24:46.494Z,56.92
2017-11-14T14:27:12.442Z,56.34
2017-11-14T14:29:38.385Z,56.02
2017-11-14T14:32:04.324Z,56.11
2017-11-14T14:34:30.260Z,56.75
2017-11-14T14:36:56.226Z,56.39
2017-11-14T14:39:22.220Z,56.61
2017-11-14T14:41:48.176Z,56.46
2017-11-14T14:44:14.148Z,56.78
2017-11-14T14:46:40.091Z,56.65
2017-11-14T14:49:06.032Z,56.35
2017-11-14T14:51:31.989Z,56.42
2017-11-14T14:53:57.939Z,56.54
2017-11-14T14:56:23.880Z,56.99
2017-11-14T14:58:49.828Z,57.26
2017-11-14T15:01:15.764Z,57.14
2017-11-14T15:03:41.797Z,57.60
2017-11-14T15:06:07.802Z,57.18
2017-11-14T15:08:33.772Z,57.11
2017-11-14T15:10:59.726Z,56.82
2017-11-14T15:13:25.689Z,57.29
2017-11-14T15:15:51.615Z,57.88
2017-11-14T15:18:17.584Z,57.75
2017-11-14T15:20:43.547Z,57.69
2017-11-14T15:23:09.512Z,57.81
2017-11-14T15:25:35.468Z,57.73
2017-11-14T15:28:01.416Z,57.54
2017-11-14T15:30:27.375Z,57.64
2017-11-14T15:32:53.336Z,57.27
2017-11-14T15:35:19.288Z,57.63
2017-11-14T15:37:45.237Z,57.68
2017-11-14T15:40:11.185Z,57.54
2017-11-14T15:42:37.128Z,57.92
2017-11-14T15:45:03.065Z,57.43
2017-11-14T15:47:29.012Z,57.00
2017-11-14T15:49:54.950Z,57.05
2017-11-14T15:52:20.925Z,57.34
2017-11-14T15:54:46.907Z,57.23
2017-11-14T15:57:12.898Z,56.77
2017-11-14T15:59:38.864Z,57.26
2017-11-14T16:02:04.820Z,57.37
2017-11-14T16:04:30.774Z,57.45
2017-11-14T16:06:56.742Z,57.31
2017-11-14T16:09:22.690Z,57.32
2017-11-14T16:11:48.636Z,57.30
2017-11-14T16:14:14.617Z,57.27
2017-11-14T16:16:40.558Z,57.14
2017-11-14T16:19:06.526Z,56.86
2017-11-14T16:21:32.484Z,57.61
2017-11-14T16:23:58.446Z,57.72
2017-11-14T16:26:24.378Z,57.44
2017-11-14T16:28:50.328Z,57.67
2017-11-14T16:31:16.273Z,57.79
2017-11-14T16:33:42.204Z,57.59
2017-11-14T16:36:08.164Z,58.00
2017-11-14T16:38:34.098Z,57.96
2017-11-14T16:41:00.028Z,57.35
2017-11-14T16:43:25.976Z,57.52
2017-11-14T16:45:51.922Z,57.87
2017-11-14T16:48:17.942Z,57.82
2017-11-14T16:50:43.886Z,58.29
2017-11-14T16:53:09.814Z,58.18
2017-11-14T16:55:35.784Z,58.37
2017-11-14T16:58:01.746Z,58.26
2017-11-14T17:00:27.712Z,58.42
2017-11-14T17:02:53.680Z,58.56
2017-11-14T17:05:19.617Z,58.20
2017-11-14T17:07:45.562Z,58.36
2017-11-14T17:10:11.511Z,58.13
2017-11-14T17:12:37.443Z,58.16
2017-11-14T17:15:03.403Z,58.02
2017-11-14T17:17:29.352Z,58.29
2017-11-14T17:19:55.334Z,58.28
2017-11-14T17:22:21.285Z,58.71
2017-11-14T17:24:47.247Z,58.62
2017-11-14T17:27:13.200Z,58.65
2017-11-14T17:29:39.236Z,58.30
2017-11-14T17:32:05.206Z,58.72
2017-11-14T17:34:31.169Z,58.39
2017-11-14T17:36:57.190Z,58.70
2017-11-14T17:39:23.205Z,58.39
2017-11-14T17:41:49.210Z,58.55
2017-11-14T17:44:15.164Z,58.41
2017-11-14T17:46:41.159Z,57.77
2017-11-14T17:49:07.097Z,57.81
2017-11-14T17:51:33.078Z,57.96
2017-11-14T17:53:59.049Z,57.80
2017-11-14T17:56:24.991Z,57.98
2017-11-14T17:58:51.073Z,58.06
2017-11-14T18:01:17.033Z,57.81
2017-11-14T18:03:42.985Z,57.95
2017-11-14T18:06:08.978Z,57.78
2017-11-14T18:08:34.926Z,58.31
2017-11-14T18:11:00.865Z,58.41
2017-11-14T18:13:26.793Z,57.93
2017-11-14T18:15:52.755Z,57.95
2017-11-14T18:18:18.684Z,58.38
2017-11-14T18:20:44.640Z,57.77
2017-11-14T18:23:10.629Z,57.92
2017-11-14T18:25:36.657Z,57.93
2017-11-14T18:28:02.617Z,57.79
2017-11-14T18:30:28.577Z,57.84
2017-11-14T18:32:54.541Z,58.00
2017-11-14T18:35:20.490Z,57.70
2017-11-14T18:37:46.420Z,57.63
2017-11-14T18:40:12.374Z,57.61
2017-11-14T18:42:38.346Z,57.52
2017-11-14T18:45:04.286Z,57.57
2017-11-14T18:47:30.226Z,58.14
2017-11-14T18:49:56.171Z,57.73
2017-11-14T18:52:22.141Z,57.65
2017-11-14T18:54:48.072Z,57.76
2017-11-14T18:57:14.010Z,56.98
2017-11-14T18:59:40.039Z,56.98
2017-11-14T19:02:13.209Z,57.25
2017-11-14T19:04:39.243Z,57.20
2017-11-14T19:07:05.178Z,57.35
2017-11-14T19:09:31.115Z,57.13
2017-11-14T19:11:57.129Z,56.76
2017-11-14T19:14:23.057Z,56.67
2017-11-14T19:16:49.050Z,56.18
2017-11-14T19:19:15.035Z,56.90
2017-11-14T19:21:40.979Z,57.81
2017-11-14T19:24:06.939Z,57.71
2017-11-14T19:26:32.889Z,56.94
2017-11-14T19:28:58.859Z,56.23
2017-11-14T19:31:24.810Z,55.62
2017-11-14T19:33:50.753Z,55.66
2017-11-14T19:36:16.712Z,55.96
2017-11-14T19:38:42.660Z,58.23
2017-11-14T19:41:08.709Z,58.27
2017-11-14T19:43:34.672Z,56.19
2017-11-14T19:46:00.609Z,56.51
2017-11-14T19:48:26.559Z,55.77
2017-11-14T19:50:52.508Z,56.01
2017-11-14T19:53:18.506Z,56.08
2017-11-14T19:55:44.457Z,55.87
2017-11-14T19:58:10.408Z,55.80
2017-11-14T20:00:36.368Z,56.01
2017-11-14T20:03:02.357Z,55.98
2017-11-14T20:05:28.329Z,55.97
2017-11-14T20:07:54.287Z,56.06
2017-11-14T20:10:20.238Z,55.95
2017-11-14T20:12:46.201Z,55.67
2017-11-14T20:15:12.145Z,55.37
2017-11-14T20:17:38.083Z,55.93
2017-11-14T20:20:04.034Z,55.81
2017-11-14T20:22:30.029Z,55.63
2017-11-14T20:24:56.014Z,56.05
2017-11-14T20:27:22.146Z,55.85
2017-11-14T20:29:48.089Z,55.53
2017-11-14T20:32:14.041Z,55.75
2017-11-14T20:34:39.987Z,56.30
2017-11-14T20:37:06.017Z,55.75
2017-11-14T20:39:31.968Z,56.18
2017-11-14T20:41:57.913Z,56.67
2017-11-14T20:44:23.863Z,56.68
2017-11-14T20:46:49.804Z,56.44
2017-11-14T20:49:15.948Z,56.60
2017-11-14T20:51:41.898Z,56.95
2017-11-14T20:54:07.893Z,56.93
2017-11-14T20:56:33.874Z,57.03
2017-11-14T20:58:59.852Z,57.44
2017-11-14T21:01:26.062Z,57.50
2017-11-14T21:03:52.105Z,57.19
2017-11-14T21:06:18.049Z,57.31
2017-11-14T21:08:43.985Z,57.36
2017-11-14T21:11:09.935Z,57.12
2017-11-14T21:13:35.907Z,57.29
2017-11-14T21:16:01.896Z,57.78
2017-11-14T21:18:27.837Z,58.12
2017-11-14T21:20:53.809Z,57.62
2017-11-14T21:23:19.781Z,58.06
2017-11-14T21:25:45.731Z,58.00
2017-11-14T21:28:11.673Z,57.44
2017-11-14T21:30:37.617Z,58.02
2017-11-14T21:33:03.575Z,58.00
2017-11-14T21:35:29.532Z,57.79
2017-11-14T21:37:55.810Z,57.94
2017-11-14T21:40:21.772Z,57.71
2017-11-14T21:42:47.722Z,57.93
2017-11-14T21:45:13.664Z,57.59
2017-11-14T21:47:39.619Z,57.90
2017-11-14T21:50:05.581Z,57.76
2017-11-14T21:52:31.533Z,57.71
2017-11-14T21:54:57.492Z,57.67
2017-11-14T21:57:23.440Z,57.42
2017-11-14T21:59:49.406Z,57.67
2017-11-14T22:02:15.381Z,57.64
2017-11-14T22:04:41.330Z,57.45
2017-11-14T22:07:07.314Z,57.41
2017-11-14T22:09:33.253Z,57.45
2017-11-14T22:11:59.231Z,57.36
2017-11-14T22:14:25.174Z,56.89
2017-11-14T22:16:51.125Z,56.96
2017-11-14T22:19:17.086Z,57.10
2017-11-14T22:21:43.107Z,56.82
2017-11-14T22:24:09.080Z,56.71
2017-11-14T22:26:35.025Z,57.00
2017-11-14T22:29:00.973Z,57.13
2017-11-14T22:31:26.926Z,57.01
2017-11-14T22:33:52.950Z,56.95
2017-11-14T22:36:18.901Z,56.88
2017-11-14T22:38:44.851Z,57.04
2017-11-14T22:41:10.791Z,56.83
2017-11-14T22:43:36.722Z,56.54
2017-11-14T22:46:02.681Z,56.67
2017-11-14T22:48:28.656Z,56.59
2017-11-14T22:50:54.600Z,56.20
2017-11-14T22:53:20.535Z,56.04
2017-11-14T22:55:46.466Z,56.03
2017-11-14T22:58:12.401Z,56.32
2017-11-14T23:00:38.341Z,55.77
2017-11-14T23:03:04.275Z,56.02
2017-11-14T23:05:30.236Z,56.00
2017-11-14T23:07:56.173Z,56.04
2017-11-14T23:10:22.116Z,56.24
2017-11-14T23:12:48.060Z,56.18
2017-11-14T23:15:14.094Z,56.45
2017-11-14T23:17:40.071Z,56.55
2017-11-14T23:20:06.023Z,56.74
2017-11-14T23:22:31.980Z,56.82
2017-11-14T23:24:57.930Z,56.70
2017-11-14T23:27:23.872Z,56.81
2017-11-14T23:29:49.929Z,56.70
2017-11-14T23:32:15.863Z,56.76
2017-11-14T23:34:41.793Z,56.81
2017-11-14T23:37:07.741Z,56.70
2017-11-14T23:39:33.672Z,57.09
2017-11-14T23:41:59.620Z,57.10
2017-11-14T23:44:25.547Z,56.69
2017-11-14T23:46:51.484Z,56.80
2017-11-14T23:49:17.426Z,57.21
2017-11-14T23:51:43.391Z,56.96
2017-11-14T23:54:09.357Z,57.04
2017-11-14T23:56:35.308Z,57.31
2017-11-14T23:59:01.241Z,57.21
